<?xml version="1.0" encoding="utf-8"?>
<gpx xmlns:xsi="http://www.w3.org/2001/XMLSchema-instance" xmlns:xsd="http://www.w3.org/2001/XMLSchema" version="1.1" creator="Shapelink.com" xmlns="http://www.topografix.com/GPX/1/1" xmlns:gpxtpx="http://www.garmin.com/xmlschemas/TrackPointExtension/v1">
  <metadata>
    <name>Running 2.07 km, 2014-05-13</name>
    <desc></desc>
    <author><name>Carl Grundberg</name></author> 
    <time>2014-05-13T17:55:54Z</time>
  </metadata>
  <trk>
    <name>Running 2.07 km, 2014-05-13</name>
    <trkseg>
      <trkpt lat="56.3438886" lon="13.6457948">
        <ele>104.44</ele>
        <time>2014-05-13T17:55:54Z</time>
      </trkpt>
      <trkpt lat="56.3438792" lon="13.645797">
        <ele>104.44</ele>
        <time>2014-05-13T17:55:55Z</time>
      </trkpt>
      <trkpt lat="56.3438244" lon="13.6458328">
        <ele>104.921</ele>
        <time>2014-05-13T17:55:59Z</time>
      </trkpt>
      <trkpt lat="56.3437596" lon="13.6458054">
        <ele>104.44</ele>
        <time>2014-05-13T17:56:04Z</time>
      </trkpt>
      <trkpt lat="56.3437429" lon="13.6457896">
        <ele>104.44</ele>
        <time>2014-05-13T17:56:05Z</time>
      </trkpt>
      <trkpt lat="56.3436695" lon="13.645639">
        <ele>103.96</ele>
        <time>2014-05-13T17:56:11Z</time>
      </trkpt>
      <trkpt lat="56.3436491" lon="13.6455764">
        <ele>104.44</ele>
        <time>2014-05-13T17:56:13Z</time>
      </trkpt>
      <trkpt lat="56.3436487" lon="13.6454664">
        <ele>104.921</ele>
        <time>2014-05-13T17:56:17Z</time>
      </trkpt>
      <trkpt lat="56.3435644" lon="13.6453565">
        <ele>103.96</ele>
        <time>2014-05-13T17:56:22Z</time>
      </trkpt>
      <trkpt lat="56.3434871" lon="13.6453106">
        <ele>103.479</ele>
        <time>2014-05-13T17:56:26Z</time>
      </trkpt>
      <trkpt lat="56.3434038" lon="13.6452247">
        <ele>104.921</ele>
        <time>2014-05-13T17:56:30Z</time>
      </trkpt>
      <trkpt lat="56.3433388" lon="13.6451889">
        <ele>105.402</ele>
        <time>2014-05-13T17:56:33Z</time>
      </trkpt>
      <trkpt lat="56.3432928" lon="13.6451796">
        <ele>103.96</ele>
        <time>2014-05-13T17:56:36Z</time>
      </trkpt>
      <trkpt lat="56.343225" lon="13.6450775">
        <ele>103.479</ele>
        <time>2014-05-13T17:56:41Z</time>
      </trkpt>
      <trkpt lat="56.3431782" lon="13.6450361">
        <ele>103.96</ele>
        <time>2014-05-13T17:56:44Z</time>
      </trkpt>
      <trkpt lat="56.3431386" lon="13.6449775">
        <ele>103.96</ele>
        <time>2014-05-13T17:56:47Z</time>
      </trkpt>
      <trkpt lat="56.343111" lon="13.6449407">
        <ele>104.44</ele>
        <time>2014-05-13T17:56:49Z</time>
      </trkpt>
      <trkpt lat="56.3430177" lon="13.6448567">
        <ele>105.402</ele>
        <time>2014-05-13T17:56:54Z</time>
      </trkpt>
      <trkpt lat="56.342997" lon="13.6448359">
        <ele>105.882</ele>
        <time>2014-05-13T17:56:55Z</time>
      </trkpt>
      <trkpt lat="56.3429141" lon="13.6446698">
        <ele>106.363</ele>
        <time>2014-05-13T17:57:01Z</time>
      </trkpt>
      <trkpt lat="56.3429048" lon="13.6446027">
        <ele>106.363</ele>
        <time>2014-05-13T17:57:03Z</time>
      </trkpt>
      <trkpt lat="56.3428069" lon="13.6445227">
        <ele>106.844</ele>
        <time>2014-05-13T17:57:08Z</time>
      </trkpt>
      <trkpt lat="56.3427379" lon="13.6444735">
        <ele>106.844</ele>
        <time>2014-05-13T17:57:11Z</time>
      </trkpt>
      <trkpt lat="56.3426795" lon="13.6443805">
        <ele>107.324</ele>
        <time>2014-05-13T17:57:15Z</time>
      </trkpt>
      <trkpt lat="56.3426023" lon="13.6442526">
        <ele>107.805</ele>
        <time>2014-05-13T17:57:20Z</time>
      </trkpt>
      <trkpt lat="56.3425418" lon="13.6441616">
        <ele>107.805</ele>
        <time>2014-05-13T17:57:24Z</time>
      </trkpt>
      <trkpt lat="56.3424902" lon="13.6440495">
        <ele>108.286</ele>
        <time>2014-05-13T17:57:28Z</time>
      </trkpt>
      <trkpt lat="56.3424454" lon="13.6438522">
        <ele>109.247</ele>
        <time>2014-05-13T17:57:34Z</time>
      </trkpt>
      <trkpt lat="56.3423329" lon="13.643726">
        <ele>110.689</ele>
        <time>2014-05-13T17:57:40Z</time>
      </trkpt>
      <trkpt lat="56.34229" lon="13.6436483">
        <ele>111.17</ele>
        <time>2014-05-13T17:57:43Z</time>
      </trkpt>
      <trkpt lat="56.3422352" lon="13.6436051">
        <ele>111.17</ele>
        <time>2014-05-13T17:57:46Z</time>
      </trkpt>
      <trkpt lat="56.3421796" lon="13.6434865">
        <ele>111.65</ele>
        <time>2014-05-13T17:57:50Z</time>
      </trkpt>
      <trkpt lat="56.3421408" lon="13.6433372">
        <ele>111.65</ele>
        <time>2014-05-13T17:57:55Z</time>
      </trkpt>
      <trkpt lat="56.3420655" lon="13.6431789">
        <ele>111.65</ele>
        <time>2014-05-13T17:58:01Z</time>
      </trkpt>
      <trkpt lat="56.3420509" lon="13.6430526">
        <ele>112.131</ele>
        <time>2014-05-13T17:58:05Z</time>
      </trkpt>
      <trkpt lat="56.3420171" lon="13.6429415">
        <ele>113.092</ele>
        <time>2014-05-13T17:58:09Z</time>
      </trkpt>
      <trkpt lat="56.3420294" lon="13.642777">
        <ele>113.092</ele>
        <time>2014-05-13T17:58:14Z</time>
      </trkpt>
      <trkpt lat="56.3420351" lon="13.6426552">
        <ele>112.612</ele>
        <time>2014-05-13T17:58:17Z</time>
      </trkpt>
      <trkpt lat="56.3420765" lon="13.6425055">
        <ele>112.131</ele>
        <time>2014-05-13T17:58:21Z</time>
      </trkpt>
      <trkpt lat="56.342093" lon="13.6423735">
        <ele>112.131</ele>
        <time>2014-05-13T17:58:25Z</time>
      </trkpt>
      <trkpt lat="56.3420816" lon="13.6421921">
        <ele>111.17</ele>
        <time>2014-05-13T17:58:30Z</time>
      </trkpt>
      <trkpt lat="56.3420863" lon="13.6421467">
        <ele>111.17</ele>
        <time>2014-05-13T17:58:32Z</time>
      </trkpt>
      <trkpt lat="56.3420914" lon="13.6420175">
        <ele>111.65</ele>
        <time>2014-05-13T17:58:36Z</time>
      </trkpt>
      <trkpt lat="56.3420898" lon="13.6419013">
        <ele>111.17</ele>
        <time>2014-05-13T17:58:40Z</time>
      </trkpt>
      <trkpt lat="56.342077" lon="13.6416721">
        <ele>111.17</ele>
        <time>2014-05-13T17:58:46Z</time>
      </trkpt>
      <trkpt lat="56.3420677" lon="13.6415601">
        <ele>111.17</ele>
        <time>2014-05-13T17:58:50Z</time>
      </trkpt>
      <trkpt lat="56.342066" lon="13.6414634">
        <ele>111.65</ele>
        <time>2014-05-13T17:58:53Z</time>
      </trkpt>
      <trkpt lat="56.3420811" lon="13.6413847">
        <ele>111.65</ele>
        <time>2014-05-13T17:58:56Z</time>
      </trkpt>
      <trkpt lat="56.3420976" lon="13.6413001">
        <ele>111.65</ele>
        <time>2014-05-13T17:59:02Z</time>
      </trkpt>
      <trkpt lat="56.342104" lon="13.6412296">
        <ele>111.65</ele>
        <time>2014-05-13T17:59:05Z</time>
      </trkpt>
      <trkpt lat="56.3421312" lon="13.6410655">
        <ele>111.17</ele>
        <time>2014-05-13T17:59:10Z</time>
      </trkpt>
      <trkpt lat="56.3421178" lon="13.6409235">
        <ele>111.17</ele>
        <time>2014-05-13T17:59:14Z</time>
      </trkpt>
      <trkpt lat="56.3420936" lon="13.6407952">
        <ele>112.612</ele>
        <time>2014-05-13T17:59:18Z</time>
      </trkpt>
      <trkpt lat="56.3420351" lon="13.6407154">
        <ele>113.092</ele>
        <time>2014-05-13T17:59:22Z</time>
      </trkpt>
      <trkpt lat="56.3419448" lon="13.6405711">
        <ele>114.054</ele>
        <time>2014-05-13T17:59:27Z</time>
      </trkpt>
      <trkpt lat="56.3418981" lon="13.6405324">
        <ele>114.054</ele>
        <time>2014-05-13T17:59:29Z</time>
      </trkpt>
      <trkpt lat="56.3418362" lon="13.6403606">
        <ele>114.534</ele>
        <time>2014-05-13T17:59:34Z</time>
      </trkpt>
      <trkpt lat="56.3418233" lon="13.6403407">
        <ele>115.015</ele>
        <time>2014-05-13T17:59:35Z</time>
      </trkpt>
      <trkpt lat="56.3417676" lon="13.6403149">
        <ele>115.015</ele>
        <time>2014-05-13T17:59:38Z</time>
      </trkpt>
      <trkpt lat="56.3417025" lon="13.6402418">
        <ele>115.015</ele>
        <time>2014-05-13T17:59:42Z</time>
      </trkpt>
      <trkpt lat="56.3416465" lon="13.6401554">
        <ele>115.496</ele>
        <time>2014-05-13T17:59:46Z</time>
      </trkpt>
      <trkpt lat="56.3415771" lon="13.6401245">
        <ele>115.496</ele>
        <time>2014-05-13T17:59:49Z</time>
      </trkpt>
      <trkpt lat="56.3415041" lon="13.6401376">
        <ele>115.015</ele>
        <time>2014-05-13T17:59:53Z</time>
      </trkpt>
      <trkpt lat="56.3414043" lon="13.6401606">
        <ele>114.534</ele>
        <time>2014-05-13T17:59:58Z</time>
      </trkpt>
      <trkpt lat="56.341346" lon="13.6401857">
        <ele>115.015</ele>
        <time>2014-05-13T18:00:02Z</time>
      </trkpt>
      <trkpt lat="56.3412957" lon="13.6402014">
        <ele>115.015</ele>
        <time>2014-05-13T18:00:05Z</time>
      </trkpt>
      <trkpt lat="56.3412364" lon="13.640209">
        <ele>114.054</ele>
        <time>2014-05-13T18:00:09Z</time>
      </trkpt>
      <trkpt lat="56.3411145" lon="13.6401627">
        <ele>115.015</ele>
        <time>2014-05-13T18:00:16Z</time>
      </trkpt>
      <trkpt lat="56.3410342" lon="13.6401641">
        <ele>115.015</ele>
        <time>2014-05-13T18:00:20Z</time>
      </trkpt>
      <trkpt lat="56.3409409" lon="13.6401833">
        <ele>115.015</ele>
        <time>2014-05-13T18:00:24Z</time>
      </trkpt>
      <trkpt lat="56.3409175" lon="13.6401931">
        <ele>115.015</ele>
        <time>2014-05-13T18:00:25Z</time>
      </trkpt>
      <trkpt lat="56.3407946" lon="13.6402573">
        <ele>115.496</ele>
        <time>2014-05-13T18:00:30Z</time>
      </trkpt>
      <trkpt lat="56.3407547" lon="13.6403003">
        <ele>115.496</ele>
        <time>2014-05-13T18:00:32Z</time>
      </trkpt>
      <trkpt lat="56.3406955" lon="13.6404238">
        <ele>115.976</ele>
        <time>2014-05-13T18:00:37Z</time>
      </trkpt>
      <trkpt lat="56.3406328" lon="13.6404282">
        <ele>115.976</ele>
        <time>2014-05-13T18:00:41Z</time>
      </trkpt>
      <trkpt lat="56.3405888" lon="13.640439">
        <ele>115.976</ele>
        <time>2014-05-13T18:00:44Z</time>
      </trkpt>
      <trkpt lat="56.3405562" lon="13.6406139">
        <ele>116.938</ele>
        <time>2014-05-13T18:00:50Z</time>
      </trkpt>
      <trkpt lat="56.3405622" lon="13.6407567">
        <ele>117.418</ele>
        <time>2014-05-13T18:00:54Z</time>
      </trkpt>
      <trkpt lat="56.3405757" lon="13.6407848">
        <ele>117.418</ele>
        <time>2014-05-13T18:00:55Z</time>
      </trkpt>
      <trkpt lat="56.3406293" lon="13.6409441">
        <ele>117.418</ele>
        <time>2014-05-13T18:01:01Z</time>
      </trkpt>
      <trkpt lat="56.3406966" lon="13.641069">
        <ele>117.418</ele>
        <time>2014-05-13T18:01:05Z</time>
      </trkpt>
      <trkpt lat="56.3407509" lon="13.6411592">
        <ele>117.899</ele>
        <time>2014-05-13T18:01:09Z</time>
      </trkpt>
      <trkpt lat="56.3407712" lon="13.6411634">
        <ele>117.899</ele>
        <time>2014-05-13T18:01:10Z</time>
      </trkpt>
      <trkpt lat="56.3408264" lon="13.6411735">
        <ele>117.899</ele>
        <time>2014-05-13T18:01:13Z</time>
      </trkpt>
      <trkpt lat="56.3408596" lon="13.6412533">
        <ele>116.938</ele>
        <time>2014-05-13T18:01:17Z</time>
      </trkpt>
      <trkpt lat="56.3409196" lon="13.6413587">
        <ele>116.938</ele>
        <time>2014-05-13T18:01:21Z</time>
      </trkpt>
      <trkpt lat="56.3409365" lon="13.6415244">
        <ele>117.418</ele>
        <time>2014-05-13T18:01:26Z</time>
      </trkpt>
      <trkpt lat="56.3409763" lon="13.6416703">
        <ele>119.341</ele>
        <time>2014-05-13T18:01:30Z</time>
      </trkpt>
      <trkpt lat="56.3409861" lon="13.6417043">
        <ele>119.341</ele>
        <time>2014-05-13T18:01:31Z</time>
      </trkpt>
      <trkpt lat="56.3410798" lon="13.6419031">
        <ele>121.264</ele>
        <time>2014-05-13T18:01:37Z</time>
      </trkpt>
      <trkpt lat="56.3410957" lon="13.6419388">
        <ele>121.744</ele>
        <time>2014-05-13T18:01:38Z</time>
      </trkpt>
      <trkpt lat="56.3411741" lon="13.6420782">
        <ele>122.225</ele>
        <time>2014-05-13T18:01:43Z</time>
      </trkpt>
      <trkpt lat="56.3412488" lon="13.6421508">
        <ele>122.225</ele>
        <time>2014-05-13T18:01:47Z</time>
      </trkpt>
      <trkpt lat="56.3412736" lon="13.6422289">
        <ele>122.225</ele>
        <time>2014-05-13T18:01:50Z</time>
      </trkpt>
      <trkpt lat="56.3412999" lon="13.6422741">
        <ele>121.744</ele>
        <time>2014-05-13T18:01:53Z</time>
      </trkpt>
      <trkpt lat="56.3413071" lon="13.642318">
        <ele>121.744</ele>
        <time>2014-05-13T18:01:56Z</time>
      </trkpt>
      <trkpt lat="56.3413244" lon="13.6424013">
        <ele>120.783</ele>
        <time>2014-05-13T18:02:00Z</time>
      </trkpt>
      <trkpt lat="56.3413631" lon="13.6424181">
        <ele>120.302</ele>
        <time>2014-05-13T18:02:07Z</time>
      </trkpt>
      <trkpt lat="56.3413675" lon="13.6424417">
        <ele>120.302</ele>
        <time>2014-05-13T18:02:09Z</time>
      </trkpt>
      <trkpt lat="56.3413933" lon="13.6425023">
        <ele>117.899</ele>
        <time>2014-05-13T18:02:14Z</time>
      </trkpt>
      <trkpt lat="56.3413905" lon="13.6425198">
        <ele>117.418</ele>
        <time>2014-05-13T18:02:15Z</time>
      </trkpt>
      <trkpt lat="56.3413863" lon="13.642539">
        <ele>116.938</ele>
        <time>2014-05-13T18:02:17Z</time>
      </trkpt>
      <trkpt lat="56.3414357" lon="13.6425488">
        <ele>115.976</ele>
        <time>2014-05-13T18:02:22Z</time>
      </trkpt>
      <trkpt lat="56.3414269" lon="13.642647">
        <ele>115.976</ele>
        <time>2014-05-13T18:02:28Z</time>
      </trkpt>
      <trkpt lat="56.3414337" lon="13.6427102">
        <ele>115.496</ele>
        <time>2014-05-13T18:02:32Z</time>
      </trkpt>
      <trkpt lat="56.3414693" lon="13.6427707">
        <ele>115.496</ele>
        <time>2014-05-13T18:02:36Z</time>
      </trkpt>
      <trkpt lat="56.3414946" lon="13.6428198">
        <ele>116.457</ele>
        <time>2014-05-13T18:02:41Z</time>
      </trkpt>
      <trkpt lat="56.3415104" lon="13.6428278">
        <ele>116.457</ele>
        <time>2014-05-13T18:02:43Z</time>
      </trkpt>
      <trkpt lat="56.341556" lon="13.6428664">
        <ele>116.938</ele>
        <time>2014-05-13T18:02:48Z</time>
      </trkpt>
      <trkpt lat="56.3415828" lon="13.6428737">
        <ele>117.418</ele>
        <time>2014-05-13T18:02:50Z</time>
      </trkpt>
      <trkpt lat="56.3416793" lon="13.6429904">
        <ele>116.457</ele>
        <time>2014-05-13T18:02:56Z</time>
      </trkpt>
      <trkpt lat="56.3417191" lon="13.6431">
        <ele>115.976</ele>
        <time>2014-05-13T18:03:00Z</time>
      </trkpt>
      <trkpt lat="56.3417751" lon="13.6432405">
        <ele>115.496</ele>
        <time>2014-05-13T18:03:06Z</time>
      </trkpt>
      <trkpt lat="56.3417937" lon="13.6433204">
        <ele>115.015</ele>
        <time>2014-05-13T18:03:09Z</time>
      </trkpt>
      <trkpt lat="56.3417818" lon="13.6434592">
        <ele>115.496</ele>
        <time>2014-05-13T18:03:13Z</time>
      </trkpt>
      <trkpt lat="56.3418016" lon="13.6436069">
        <ele>116.457</ele>
        <time>2014-05-13T18:03:17Z</time>
      </trkpt>
      <trkpt lat="56.3418262" lon="13.643732">
        <ele>116.938</ele>
        <time>2014-05-13T18:03:21Z</time>
      </trkpt>
      <trkpt lat="56.3418413" lon="13.6438991">
        <ele>117.418</ele>
        <time>2014-05-13T18:03:27Z</time>
      </trkpt>
      <trkpt lat="56.341822" lon="13.6440191">
        <ele>117.418</ele>
        <time>2014-05-13T18:03:30Z</time>
      </trkpt>
      <trkpt lat="56.3417539" lon="13.6442341">
        <ele>116.938</ele>
        <time>2014-05-13T18:03:36Z</time>
      </trkpt>
      <trkpt lat="56.3417327" lon="13.6442837">
        <ele>116.938</ele>
        <time>2014-05-13T18:03:38Z</time>
      </trkpt>
      <trkpt lat="56.3417129" lon="13.6444751">
        <ele>116.457</ele>
        <time>2014-05-13T18:03:44Z</time>
      </trkpt>
      <trkpt lat="56.3417417" lon="13.6445952">
        <ele>115.976</ele>
        <time>2014-05-13T18:03:48Z</time>
      </trkpt>
      <trkpt lat="56.341776" lon="13.6446668">
        <ele>115.015</ele>
        <time>2014-05-13T18:03:51Z</time>
      </trkpt>
      <trkpt lat="56.3418372" lon="13.6447507">
        <ele>114.054</ele>
        <time>2014-05-13T18:03:55Z</time>
      </trkpt>
      <trkpt lat="56.3418981" lon="13.6448739">
        <ele>113.092</ele>
        <time>2014-05-13T18:04:00Z</time>
      </trkpt>
      <trkpt lat="56.3419403" lon="13.6449739">
        <ele>112.612</ele>
        <time>2014-05-13T18:04:03Z</time>
      </trkpt>
      <trkpt lat="56.3419863" lon="13.645013">
        <ele>112.131</ele>
        <time>2014-05-13T18:04:06Z</time>
      </trkpt>
      <trkpt lat="56.3420314" lon="13.6450608">
        <ele>111.17</ele>
        <time>2014-05-13T18:04:09Z</time>
      </trkpt>
      <trkpt lat="56.342061" lon="13.6450934">
        <ele>110.689</ele>
        <time>2014-05-13T18:04:13Z</time>
      </trkpt>
      <trkpt lat="56.3420699" lon="13.6451028">
        <ele>110.689</ele>
        <time>2014-05-13T18:04:14Z</time>
      </trkpt>
      <trkpt lat="56.342124" lon="13.645165">
        <ele>109.728</ele>
        <time>2014-05-13T18:04:19Z</time>
      </trkpt>
      <trkpt lat="56.3421216" lon="13.6452114">
        <ele>109.247</ele>
        <time>2014-05-13T18:04:22Z</time>
      </trkpt>
      <trkpt lat="56.3421602" lon="13.6452799">
        <ele>108.286</ele>
        <time>2014-05-13T18:04:27Z</time>
      </trkpt>
      <trkpt lat="56.3421932" lon="13.645313">
        <ele>108.286</ele>
        <time>2014-05-13T18:04:29Z</time>
      </trkpt>
      <trkpt lat="56.3422293" lon="13.6453523">
        <ele>108.286</ele>
        <time>2014-05-13T18:04:31Z</time>
      </trkpt>
      <trkpt lat="56.3422984" lon="13.645411">
        <ele>107.805</ele>
        <time>2014-05-13T18:04:35Z</time>
      </trkpt>
      <trkpt lat="56.3423645" lon="13.6454165">
        <ele>107.805</ele>
        <time>2014-05-13T18:04:39Z</time>
      </trkpt>
      <trkpt lat="56.3424231" lon="13.6454803">
        <ele>107.805</ele>
        <time>2014-05-13T18:04:43Z</time>
      </trkpt>
      <trkpt lat="56.342465" lon="13.645544">
        <ele>107.805</ele>
        <time>2014-05-13T18:04:46Z</time>
      </trkpt>
      <trkpt lat="56.3424846" lon="13.6456043">
        <ele>106.844</ele>
        <time>2014-05-13T18:04:50Z</time>
      </trkpt>
      <trkpt lat="56.3425609" lon="13.645681">
        <ele>105.882</ele>
        <time>2014-05-13T18:04:55Z</time>
      </trkpt>
      <trkpt lat="56.342586" lon="13.6457818">
        <ele>104.921</ele>
        <time>2014-05-13T18:04:59Z</time>
      </trkpt>
      <trkpt lat="56.3426425" lon="13.6458699">
        <ele>104.44</ele>
        <time>2014-05-13T18:05:03Z</time>
      </trkpt>
      <trkpt lat="56.3426847" lon="13.6460337">
        <ele>104.44</ele>
        <time>2014-05-13T18:05:07Z</time>
      </trkpt>
      <trkpt lat="56.3427313" lon="13.646091">
        <ele>104.921</ele>
        <time>2014-05-13T18:05:10Z</time>
      </trkpt>
      <trkpt lat="56.3427715" lon="13.6461825">
        <ele>104.921</ele>
        <time>2014-05-13T18:05:14Z</time>
      </trkpt>
      <trkpt lat="56.3428015" lon="13.6462303">
        <ele>104.44</ele>
        <time>2014-05-13T18:05:17Z</time>
      </trkpt>
      <trkpt lat="56.3428287" lon="13.6462975">
        <ele>103.479</ele>
        <time>2014-05-13T18:05:21Z</time>
      </trkpt>
      <trkpt lat="56.3428378" lon="13.6463113">
        <ele>103.479</ele>
        <time>2014-05-13T18:05:22Z</time>
      </trkpt>
      <trkpt lat="56.3429012" lon="13.6463915">
        <ele>102.998</ele>
        <time>2014-05-13T18:05:29Z</time>
      </trkpt>
      <trkpt lat="56.3429124" lon="13.6464028">
        <ele>102.518</ele>
        <time>2014-05-13T18:05:30Z</time>
      </trkpt>
      <trkpt lat="56.3429266" lon="13.6464279">
        <ele>102.037</ele>
        <time>2014-05-13T18:05:32Z</time>
      </trkpt>
      <trkpt lat="56.3429628" lon="13.6464878">
        <ele>101.076</ele>
        <time>2014-05-13T18:05:37Z</time>
      </trkpt>
      <trkpt lat="56.3429945" lon="13.6465244">
        <ele>100.115</ele>
        <time>2014-05-13T18:05:41Z</time>
      </trkpt>
      <trkpt lat="56.3430316" lon="13.646594">
        <ele>100.595</ele>
        <time>2014-05-13T18:05:46Z</time>
      </trkpt>
      <trkpt lat="56.3430728" lon="13.6466276">
        <ele>100.595</ele>
        <time>2014-05-13T18:05:50Z</time>
      </trkpt>
      <trkpt lat="56.343108" lon="13.6466214">
        <ele>100.595</ele>
        <time>2014-05-13T18:05:53Z</time>
      </trkpt>
      <trkpt lat="56.3431263" lon="13.6466326">
        <ele>101.076</ele>
        <time>2014-05-13T18:05:56Z</time>
      </trkpt>
      <trkpt lat="56.3431373" lon="13.6466098">
        <ele>101.556</ele>
        <time>2014-05-13T18:05:59Z</time>
      </trkpt>
      <trkpt lat="56.3431823" lon="13.6465791">
        <ele>100.595</ele>
        <time>2014-05-13T18:06:04Z</time>
      </trkpt>
      <trkpt lat="56.3432363" lon="13.6465657">
        <ele>101.076</ele>
        <time>2014-05-13T18:06:09Z</time>
      </trkpt>
      <trkpt lat="56.3433004" lon="13.6465957">
        <ele>101.556</ele>
        <time>2014-05-13T18:06:14Z</time>
      </trkpt>
      <trkpt lat="56.3433831" lon="13.6466584">
        <ele>102.037</ele>
        <time>2014-05-13T18:06:19Z</time>
      </trkpt>
      <trkpt lat="56.3434632" lon="13.6467262">
        <ele>102.518</ele>
        <time>2014-05-13T18:06:24Z</time>
      </trkpt>
      <trkpt lat="56.3435834" lon="13.6467636">
        <ele>102.518</ele>
        <time>2014-05-13T18:06:30Z</time>
      </trkpt>
      <trkpt lat="56.3436507" lon="13.6468105">
        <ele>102.518</ele>
        <time>2014-05-13T18:06:33Z</time>
      </trkpt>
      <trkpt lat="56.3436983" lon="13.6469888">
        <ele>102.998</ele>
        <time>2014-05-13T18:06:38Z</time>
      </trkpt>
      <trkpt lat="56.3437165" lon="13.6471529">
        <ele>104.44</ele>
        <time>2014-05-13T18:06:42Z</time>
      </trkpt>
      <trkpt lat="56.3437369" lon="13.6473394">
        <ele>105.402</ele>
        <time>2014-05-13T18:06:47Z</time>
      </trkpt>
      <trkpt lat="56.3437346" lon="13.6474189">
        <ele>106.363</ele>
        <time>2014-05-13T18:06:49Z</time>
      </trkpt>
      <trkpt lat="56.343741" lon="13.6475925">
        <ele>107.324</ele>
        <time>2014-05-13T18:06:54Z</time>
      </trkpt>
      <trkpt lat="56.3437357" lon="13.6476924">
        <ele>107.805</ele>
        <time>2014-05-13T18:06:57Z</time>
      </trkpt>
      <trkpt lat="56.3437264" lon="13.647851">
        <ele>106.844</ele>
        <time>2014-05-13T18:07:02Z</time>
      </trkpt>
      <trkpt lat="56.3437425" lon="13.6480121">
        <ele>107.805</ele>
        <time>2014-05-13T18:07:07Z</time>
      </trkpt>
      <trkpt lat="56.3437431" lon="13.6481591">
        <ele>108.766</ele>
        <time>2014-05-13T18:07:11Z</time>
      </trkpt>
      <trkpt lat="56.3437358" lon="13.6482513">
        <ele>109.728</ele>
        <time>2014-05-13T18:07:13Z</time>
      </trkpt>
      <trkpt lat="56.3437389" lon="13.6483953">
        <ele>110.689</ele>
        <time>2014-05-13T18:07:17Z</time>
      </trkpt>
      <trkpt lat="56.3437553" lon="13.648588">
        <ele>111.17</ele>
        <time>2014-05-13T18:07:23Z</time>
      </trkpt>
      <trkpt lat="56.343745" lon="13.6487513">
        <ele>112.131</ele>
        <time>2014-05-13T18:07:27Z</time>
      </trkpt>
      <trkpt lat="56.3437311" lon="13.6489391">
        <ele>112.612</ele>
        <time>2014-05-13T18:07:32Z</time>
      </trkpt>
      <trkpt lat="56.343718" lon="13.6490631">
        <ele>112.612</ele>
        <time>2014-05-13T18:07:35Z</time>
      </trkpt>
      <trkpt lat="56.3437233" lon="13.6491375">
        <ele>113.573</ele>
        <time>2014-05-13T18:07:37Z</time>
      </trkpt>
      <trkpt lat="56.3437288" lon="13.6493151">
        <ele>114.534</ele>
        <time>2014-05-13T18:07:42Z</time>
      </trkpt>
      <trkpt lat="56.3437719" lon="13.6495427">
        <ele>115.015</ele>
        <time>2014-05-13T18:07:49Z</time>
      </trkpt>
      <trkpt lat="56.3438652" lon="13.6497217">
        <ele>114.534</ele>
        <time>2014-05-13T18:07:55Z</time>
      </trkpt>
      <trkpt lat="56.3439222" lon="13.6498417">
        <ele>114.534</ele>
        <time>2014-05-13T18:07:59Z</time>
      </trkpt>
      <trkpt lat="56.3439301" lon="13.649869">
        <ele>114.534</ele>
        <time>2014-05-13T18:08:00Z</time>
      </trkpt>
      <trkpt lat="56.3439346" lon="13.6499629">
        <ele>113.573</ele>
        <time>2014-05-13T18:08:04Z</time>
      </trkpt>
      <trkpt lat="56.34393" lon="13.650139">
        <ele>113.573</ele>
        <time>2014-05-13T18:08:10Z</time>
      </trkpt>
      <trkpt lat="56.3439196" lon="13.650212">
        <ele>113.092</ele>
        <time>2014-05-13T18:08:13Z</time>
      </trkpt>
      <trkpt lat="56.34393" lon="13.6502599">
        <ele>113.092</ele>
        <time>2014-05-13T18:08:16Z</time>
      </trkpt>
      <trkpt lat="56.3439347" lon="13.6503074">
        <ele>112.612</ele>
        <time>2014-05-13T18:08:19Z</time>
      </trkpt>
      <trkpt lat="56.3439392" lon="13.6503346">
        <ele>112.131</ele>
        <time>2014-05-13T18:08:21Z</time>
      </trkpt>
      <trkpt lat="56.3439404" lon="13.6504034">
        <ele>112.131</ele>
        <time>2014-05-13T18:08:25Z</time>
      </trkpt>
      <trkpt lat="56.3439372" lon="13.6505093">
        <ele>111.65</ele>
        <time>2014-05-13T18:08:29Z</time>
      </trkpt>
      <trkpt lat="56.343941" lon="13.6505301">
        <ele>111.65</ele>
        <time>2014-05-13T18:08:30Z</time>
      </trkpt>
      <trkpt lat="56.3439403" lon="13.6506792">
        <ele>111.65</ele>
        <time>2014-05-13T18:08:34Z</time>
      </trkpt>
      <trkpt lat="56.343944" lon="13.6506979">
        <ele>111.17</ele>
        <time>2014-05-13T18:08:35Z</time>
      </trkpt>
      <trkpt lat="56.3440149" lon="13.6507034">
        <ele>111.65</ele>
        <time>2014-05-13T18:08:40Z</time>
      </trkpt>
      <trkpt lat="56.3440828" lon="13.6507295">
        <ele>111.65</ele>
        <time>2014-05-13T18:08:46Z</time>
      </trkpt>
      <trkpt lat="56.3441335" lon="13.6507243">
        <ele>112.131</ele>
        <time>2014-05-13T18:08:52Z</time>
      </trkpt>
      <trkpt lat="56.3442334" lon="13.650808">
        <ele>113.092</ele>
        <time>2014-05-13T18:08:57Z</time>
      </trkpt>
      <trkpt lat="56.3442817" lon="13.6508432">
        <ele>113.092</ele>
        <time>2014-05-13T18:08:59Z</time>
      </trkpt>
      <trkpt lat="56.3443417" lon="13.6510972">
        <ele>112.612</ele>
        <time>2014-05-13T18:09:04Z</time>
      </trkpt>
      <trkpt lat="56.3443707" lon="13.6514293">
        <ele>112.131</ele>
        <time>2014-05-13T18:09:10Z</time>
      </trkpt>
      <trkpt lat="56.3444754" lon="13.6515259">
        <ele>112.131</ele>
        <time>2014-05-13T18:09:15Z</time>
      </trkpt>
      <trkpt lat="56.3446086" lon="13.651404">
        <ele>112.131</ele>
        <time>2014-05-13T18:09:19Z</time>
      </trkpt>
      <trkpt lat="56.3446381" lon="13.6513781">
        <ele>112.131</ele>
        <time>2014-05-13T18:09:20Z</time>
      </trkpt>
      <trkpt lat="56.3448168" lon="13.6511911">
        <ele>113.092</ele>
        <time>2014-05-13T18:09:26Z</time>
      </trkpt>
      <trkpt lat="56.3449599" lon="13.6510206">
        <ele>113.573</ele>
        <time>2014-05-13T18:09:32Z</time>
      </trkpt>
      <trkpt lat="56.345068" lon="13.6508796">
        <ele>113.573</ele>
        <time>2014-05-13T18:09:37Z</time>
      </trkpt>
      <trkpt lat="56.3451872" lon="13.6507497">
        <ele>114.054</ele>
        <time>2014-05-13T18:09:42Z</time>
      </trkpt>
      <trkpt lat="56.3453356" lon="13.6506308">
        <ele>113.573</ele>
        <time>2014-05-13T18:09:48Z</time>
      </trkpt>
      <trkpt lat="56.3454447" lon="13.6504927">
        <ele>113.092</ele>
        <time>2014-05-13T18:09:53Z</time>
      </trkpt>
      <trkpt lat="56.3455584" lon="13.6503481">
        <ele>112.612</ele>
        <time>2014-05-13T18:09:58Z</time>
      </trkpt>
      <trkpt lat="56.3456999" lon="13.6501996">
        <ele>114.054</ele>
        <time>2014-05-13T18:10:04Z</time>
      </trkpt>
      <trkpt lat="56.3458258" lon="13.6500444">
        <ele>114.054</ele>
        <time>2014-05-13T18:10:10Z</time>
      </trkpt>
      <trkpt lat="56.3459593" lon="13.6499209">
        <ele>114.054</ele>
        <time>2014-05-13T18:10:16Z</time>
      </trkpt>
      <trkpt lat="56.3460402" lon="13.6498437">
        <ele>114.054</ele>
        <time>2014-05-13T18:10:20Z</time>
      </trkpt>
      <trkpt lat="56.3461365" lon="13.6497784">
        <ele>113.092</ele>
        <time>2014-05-13T18:10:25Z</time>
      </trkpt>
      <trkpt lat="56.3461531" lon="13.6497483">
        <ele>112.612</ele>
        <time>2014-05-13T18:10:26Z</time>
      </trkpt>
      <trkpt lat="56.3462012" lon="13.6496518">
        <ele>113.092</ele>
        <time>2014-05-13T18:10:29Z</time>
      </trkpt>
      <trkpt lat="56.3463064" lon="13.6495189">
        <ele>113.573</ele>
        <time>2014-05-13T18:10:34Z</time>
      </trkpt>
      <trkpt lat="56.3464378" lon="13.649361">
        <ele>113.573</ele>
        <time>2014-05-13T18:10:40Z</time>
      </trkpt>
      <trkpt lat="56.3465802" lon="13.649164">
        <ele>113.573</ele>
        <time>2014-05-13T18:10:47Z</time>
      </trkpt>
      <trkpt lat="56.3466257" lon="13.6491348">
        <ele>113.573</ele>
        <time>2014-05-13T18:10:49Z</time>
      </trkpt>
      <trkpt lat="56.3467434" lon="13.6489656">
        <ele>113.573</ele>
        <time>2014-05-13T18:10:55Z</time>
      </trkpt>
      <trkpt lat="56.346876" lon="13.6488105">
        <ele>114.534</ele>
        <time>2014-05-13T18:11:01Z</time>
      </trkpt>
      <trkpt lat="56.3470223" lon="13.6486104">
        <ele>115.496</ele>
        <time>2014-05-13T18:11:08Z</time>
      </trkpt>
      <trkpt lat="56.3471805" lon="13.6484101">
        <ele>116.938</ele>
        <time>2014-05-13T18:11:15Z</time>
      </trkpt>
      <trkpt lat="56.3472515" lon="13.6483311">
        <ele>116.938</ele>
        <time>2014-05-13T18:11:18Z</time>
      </trkpt>
      <trkpt lat="56.3473393" lon="13.6482383">
        <ele>116.938</ele>
        <time>2014-05-13T18:11:22Z</time>
      </trkpt>
      <trkpt lat="56.3473955" lon="13.6481615">
        <ele>116.938</ele>
        <time>2014-05-13T18:11:25Z</time>
      </trkpt>
      <trkpt lat="56.3474873" lon="13.6480368">
        <ele>116.938</ele>
        <time>2014-05-13T18:11:30Z</time>
      </trkpt>
      <trkpt lat="56.3475706" lon="13.6479716">
        <ele>116.938</ele>
        <time>2014-05-13T18:11:34Z</time>
      </trkpt>
      <trkpt lat="56.3476415" lon="13.6479175">
        <ele>116.457</ele>
        <time>2014-05-13T18:11:37Z</time>
      </trkpt>
      <trkpt lat="56.3477533" lon="13.6477776">
        <ele>117.418</ele>
        <time>2014-05-13T18:11:42Z</time>
      </trkpt>
      <trkpt lat="56.3478943" lon="13.6475982">
        <ele>117.899</ele>
        <time>2014-05-13T18:11:48Z</time>
      </trkpt>
      <trkpt lat="56.3480627" lon="13.6474181">
        <ele>116.938</ele>
        <time>2014-05-13T18:11:55Z</time>
      </trkpt>
      <trkpt lat="56.348107" lon="13.6473811">
        <ele>116.457</ele>
        <time>2014-05-13T18:11:57Z</time>
      </trkpt>
      <trkpt lat="56.3481602" lon="13.6473343">
        <ele>115.976</ele>
        <time>2014-05-13T18:11:59Z</time>
      </trkpt>
      <trkpt lat="56.3483041" lon="13.6471649">
        <ele>115.496</ele>
        <time>2014-05-13T18:12:05Z</time>
      </trkpt>
      <trkpt lat="56.348421" lon="13.6470012">
        <ele>115.015</ele>
        <time>2014-05-13T18:12:10Z</time>
      </trkpt>
      <trkpt lat="56.3485745" lon="13.6468112">
        <ele>114.054</ele>
        <time>2014-05-13T18:12:16Z</time>
      </trkpt>
    </trkseg>
  </trk>
</gpx>